Terminal Aerodrome Forecast
Issued by NWS Charleston, WV

Current Version | Previous Version | Graphics & Text | Print | Product List | Glossary On
Versions: 1 2 3 4 5 6 7 8 9 10 11 12 13 14 15 16 17 18 19 20 21 22 23 24 25 26 27
000
FTUS41 KRLX 311133
TAFEKN
TAF
KEKN 311133Z 3112/0112 00000KT P6SM SCT045 BKN080
      TEMPO 3112/3114 5SM -SHRA BR BKN045
     FM311400 21007G15KT P6SM SCT040
     FM312000 22005KT 3SM SHRA VCTS BKN035CB BKN080
     FM010100 VRB03KT 4SM SHRA BR BKN030
     FM010600 VRB03KT 2SM -SHRA BR OVC025=

USA.gov is the U.S. government's official web portal to all federal, state and local government web resources and services.